createdAt,value
2023-03-20T00:00:20.826Z,100.00
2023-03-20T00:03:11.543Z,100.00
2023-03-20T00:06:00.075Z,100.00
2023-03-20T00:08:49.959Z,100.00
2023-03-20T00:11:43.509Z,100.00
2023-03-20T00:14:40.402Z,100.00
2023-03-20T00:17:28.913Z,100.00
2023-03-20T00:20:18.016Z,100.00
2023-03-20T00:23:06.544Z,100.00
2023-03-20T00:25:55.060Z,100.00
2023-03-20T00:28:45.216Z,100.00
2023-03-20T00:31:37.084Z,100.00
2023-03-20T00:34:29.021Z,100.00
2023-03-20T00:37:17.539Z,100.00
2023-03-20T00:40:07.497Z,100.00
2023-03-20T00:43:00.529Z,100.00
2023-03-20T00:45:49.134Z,100.00
2023-03-20T00:48:40.257Z,100.00
2023-03-20T00:51:28.748Z,100.00
2023-03-20T00:54:18.602Z,100.00
2023-03-20T00:57:09.442Z,100.00
2023-03-20T01:00:00.043Z,100.00
2023-03-20T01:02:48.843Z,100.00
2023-03-20T01:05:39.006Z,100.00
2023-03-20T01:08:27.648Z,100.00
2023-03-20T01:11:18.172Z,100.00
2023-03-20T01:14:07.307Z,100.00
2023-03-20T01:16:55.868Z,100.00
2023-03-20T01:19:44.407Z,100.00
2023-03-20T01:22:34.214Z,100.00
2023-03-20T01:25:23.257Z,100.00
2023-03-20T01:28:18.289Z,100.00
2023-03-20T01:31:07.220Z,100.00
2023-03-20T01:33:55.754Z,100.00
2023-03-20T01:36:46.856Z,100.00
2023-03-20T01:39:37.723Z,100.00
2023-03-20T01:42:26.312Z,100.00
2023-03-20T01:45:18.016Z,100.00
2023-03-20T01:48:15.322Z,100.00
2023-03-20T01:51:03.844Z,100.00
2023-03-20T01:53:54.349Z,100.00
2023-03-20T01:56:47.205Z,100.00
2023-03-20T01:59:38.056Z,100.00
2023-03-20T02:02:30.310Z,100.00
2023-03-20T02:05:20.850Z,100.00
2023-03-20T02:08:23.025Z,100.00
2023-03-20T02:11:11.937Z,100.00
2023-03-20T02:14:02.874Z,100.00
2023-03-20T02:16:51.553Z,100.00
2023-03-20T02:19:45.643Z,100.00
2023-03-20T02:23:24.768Z,100.00
2023-03-20T02:26:24.184Z,100.00
2023-03-20T02:29:39.598Z,100.00
2023-03-20T02:33:06.535Z,100.00
2023-03-20T02:36:33.684Z,100.00
2023-03-20T02:39:51.161Z,100.00
2023-03-20T02:42:43.666Z,100.00
2023-03-20T02:45:35.903Z,100.00
2023-03-20T02:48:34.733Z,100.00
2023-03-20T02:51:30.993Z,100.00
2023-03-20T02:54:23.781Z,100.00
2023-03-20T02:57:18.184Z,100.00
2023-03-20T03:00:10.192Z,100.00
2023-03-20T03:03:05.867Z,100.00
2023-03-20T03:05:55.929Z,100.00
2023-03-20T03:08:48.905Z,100.00
2023-03-20T03:11:40.218Z,100.00
2023-03-20T03:14:35.671Z,100.00
2023-03-20T03:17:26.694Z,100.00
2023-03-20T03:20:21.009Z,100.00
2023-03-20T03:23:13.184Z,100.00
2023-03-20T03:26:03.877Z,100.00
2023-03-20T03:28:55.682Z,100.00
2023-03-20T03:31:46.075Z,100.00
2023-03-20T03:34:35.636Z,100.00
2023-03-20T03:37:30.456Z,100.00
2023-03-20T03:40:22.898Z,100.00
2023-03-20T03:43:16.456Z,100.00
2023-03-20T03:46:08.665Z,100.00
2023-03-20T03:48:58.884Z,100.00
2023-03-20T03:51:51.042Z,100.00
2023-03-20T03:54:43.572Z,100.00
2023-03-20T03:57:35.494Z,100.00
2023-03-20T04:00:25.415Z,100.00
2023-03-20T04:03:14.098Z,100.00
2023-03-20T04:06:04.739Z,100.00
2023-03-20T04:08:53.266Z,100.00
2023-03-20T04:11:41.762Z,100.00
2023-03-20T04:14:30.619Z,100.00
2023-03-20T04:17:19.104Z,100.00
2023-03-20T04:20:09.145Z,100.00
2023-03-20T04:22:59.072Z,100.00
2023-03-20T04:25:47.575Z,100.00
2023-03-20T04:28:36.386Z,100.00
2023-03-20T04:31:24.993Z,100.00
2023-03-20T04:34:13.525Z,100.00
2023-03-20T04:37:02.126Z,100.00
2023-03-20T04:39:51.995Z,100.00
2023-03-20T04:42:40.515Z,100.00
2023-03-20T04:45:28.962Z,100.00
2023-03-20T04:48:17.440Z,100.00
2023-03-20T04:51:06.458Z,100.00
2023-03-20T04:53:55.070Z,100.00
2023-03-20T04:56:45.026Z,100.00
2023-03-20T04:59:33.502Z,100.00
2023-03-20T05:02:21.972Z,100.00
2023-03-20T05:05:11.091Z,100.00
2023-03-20T05:07:59.601Z,100.00
2023-03-20T05:10:48.064Z,100.00
2023-03-20T05:13:37.996Z,100.00
2023-03-20T05:16:26.687Z,100.00
2023-03-20T05:19:15.352Z,100.00
2023-03-20T05:22:03.848Z,100.00
2023-03-20T05:24:52.828Z,100.00
2023-03-20T05:27:41.343Z,100.00
2023-03-20T05:30:31.218Z,100.00
2023-03-20T05:33:19.861Z,100.00
2023-03-20T05:36:09.282Z,100.00
2023-03-20T05:38:57.824Z,100.00
2023-03-20T05:41:46.343Z,100.00
2023-03-20T05:44:34.805Z,100.00
2023-03-20T05:47:26.188Z,100.00
2023-03-20T05:50:14.878Z,100.00
2023-03-20T05:53:03.594Z,100.00
2023-03-20T05:55:52.155Z,100.00
2023-03-20T05:58:40.605Z,100.00
2023-03-20T06:01:29.112Z,100.00
2023-03-20T06:04:18.897Z,100.00
2023-03-20T06:07:07.478Z,100.00
2023-03-20T06:09:56.221Z,100.00
2023-03-20T06:12:44.675Z,100.00
2023-03-20T06:15:33.229Z,100.00
2023-03-20T06:18:21.708Z,100.00
2023-03-20T06:21:12.968Z,100.00
2023-03-20T06:24:01.532Z,100.00
2023-03-20T06:26:50.014Z,100.00
2023-03-20T06:29:38.500Z,100.00
2023-03-20T06:32:27.018Z,100.00
2023-03-20T06:35:15.723Z,100.00
2023-03-20T06:38:05.614Z,100.00
2023-03-20T06:40:54.066Z,100.00
2023-03-20T06:43:44.142Z,100.00
2023-03-20T06:46:32.781Z,100.00
2023-03-20T06:49:21.425Z,100.00
2023-03-20T06:52:16.394Z,100.00
2023-03-20T06:55:07.089Z,100.00
2023-03-20T06:57:55.576Z,100.00
2023-03-20T07:00:44.945Z,100.00
2023-03-20T07:03:33.488Z,100.00
2023-03-20T07:06:23.030Z,100.00
2023-03-20T07:09:11.612Z,100.00
2023-03-20T07:12:02.401Z,100.00
2023-03-20T07:14:50.963Z,100.00
2023-03-20T07:17:39.456Z,100.00
2023-03-20T07:20:28.155Z,100.00
2023-03-20T07:23:16.690Z,100.00
2023-03-20T07:26:05.610Z,100.00
2023-03-20T07:28:55.511Z,100.00
2023-03-20T07:31:44.115Z,100.00
2023-03-20T07:34:32.757Z,100.00
2023-03-20T07:37:21.325Z,100.00
2023-03-20T07:40:11.136Z,100.00
2023-03-20T07:42:59.770Z,100.00
2023-03-20T07:45:49.647Z,100.00
2023-03-20T07:48:38.163Z,100.00
2023-03-20T07:51:26.814Z,100.00
2023-03-20T07:54:16.122Z,100.00
2023-03-20T07:57:05.397Z,100.00
2023-03-20T07:59:53.862Z,100.00
2023-03-20T08:02:43.918Z,100.00
2023-03-20T08:05:32.552Z,100.00
2023-03-20T08:08:21.228Z,100.00
2023-03-20T08:11:09.937Z,100.00
2023-03-20T08:13:58.442Z,100.00
2023-03-20T08:16:46.959Z,100.00
2023-03-20T08:19:38.305Z,99.71
2023-03-20T08:22:26.830Z,99.77
2023-03-20T08:25:15.329Z,100.00
2023-03-20T08:28:04.470Z,99.68
2023-03-20T08:30:53.141Z,99.60
2023-03-20T08:33:41.696Z,99.65
2023-03-20T08:36:31.542Z,98.07
2023-03-20T08:39:20.141Z,96.89
2023-03-20T08:42:08.668Z,91.61
2023-03-20T08:44:58.663Z,92.70
2023-03-20T08:47:48.766Z,87.89
2023-03-20T08:50:37.838Z,88.83
2023-03-20T08:53:27.714Z,86.17
2023-03-20T08:56:16.271Z,89.25
2023-03-20T08:59:04.883Z,88.25
2023-03-20T09:01:53.534Z,87.97
2023-03-20T09:04:42.139Z,88.61
2023-03-20T09:07:30.597Z,87.18
2023-03-20T09:10:20.509Z,87.71
2023-03-20T09:13:25.784Z,87.21
2023-03-20T09:16:15.191Z,86.86
2023-03-20T09:19:03.798Z,85.91
2023-03-20T09:21:52.294Z,87.18
2023-03-20T09:24:40.987Z,85.17
2023-03-20T09:27:30.866Z,83.83
2023-03-20T09:30:19.553Z,85.13
2023-03-20T09:33:08.030Z,85.66
2023-03-20T09:35:56.676Z,83.88
2023-03-20T09:38:45.208Z,84.50
2023-03-20T09:41:52.928Z,84.98
2023-03-20T09:44:54.792Z,85.92
2023-03-20T09:47:48.917Z,84.31
2023-03-20T09:50:40.438Z,83.69
2023-03-20T09:53:31.661Z,84.83
2023-03-20T09:56:22.827Z,83.66
2023-03-20T09:59:16.050Z,79.05
2023-03-20T10:02:12.442Z,79.26
2023-03-20T10:05:01.153Z,77.67
2023-03-20T10:07:49.792Z,76.57
2023-03-20T10:10:47.650Z,74.25
2023-03-20T10:13:45.156Z,71.88
2023-03-20T10:16:43.728Z,72.74
2023-03-20T10:19:35.251Z,70.67
2023-03-20T10:22:25.489Z,67.90
2023-03-20T10:25:24.723Z,66.91
2023-03-20T10:28:14.718Z,68.20
2023-03-20T10:31:15.684Z,69.03
2023-03-20T10:34:14.894Z,69.22
2023-03-20T10:37:17.027Z,67.82
2023-03-20T10:40:24.821Z,67.75
2023-03-20T10:43:17.985Z,66.21
2023-03-20T10:46:10.426Z,66.66
2023-03-20T10:49:02.506Z,68.04
2023-03-20T10:51:53.932Z,68.13
2023-03-20T10:54:45.474Z,68.98
2023-03-20T10:57:36.470Z,68.91
2023-03-20T11:00:27.918Z,68.21
2023-03-20T11:03:22.648Z,68.29
2023-03-20T11:06:18.592Z,67.49
2023-03-20T11:09:13.055Z,66.62
2023-03-20T11:12:05.578Z,62.86
2023-03-20T11:15:00.452Z,63.19
2023-03-20T11:17:54.110Z,62.71
2023-03-20T11:20:46.988Z,60.25
2023-03-20T11:23:36.560Z,62.01
2023-03-20T11:26:34.096Z,61.15
2023-03-20T11:29:27.936Z,61.21
2023-03-20T11:32:27.710Z,60.73
2023-03-20T11:35:25.302Z,60.14
2023-03-20T11:38:16.091Z,61.01
2023-03-20T11:41:06.215Z,61.71
2023-03-20T11:43:55.228Z,61.75
2023-03-20T11:46:45.608Z,61.99
2023-03-20T11:49:36.217Z,61.67
2023-03-20T11:52:28.635Z,61.41
2023-03-20T11:55:26.104Z,61.14
2023-03-20T11:58:16.862Z,60.09
2023-03-20T12:01:05.728Z,58.21
2023-03-20T12:04:09.093Z,57.13
2023-03-20T12:06:59.816Z,57.06
2023-03-20T12:09:50.908Z,54.97
2023-03-20T12:12:42.117Z,56.45
2023-03-20T12:15:33.108Z,57.60
2023-03-20T12:18:26.569Z,56.54
2023-03-20T12:21:21.046Z,58.27
2023-03-20T12:24:14.647Z,59.52
2023-03-20T12:27:17.126Z,58.70
2023-03-20T12:30:11.597Z,59.72
2023-03-20T12:33:04.495Z,59.54
2023-03-20T12:35:54.456Z,59.58
2023-03-20T12:38:45.372Z,58.25
2023-03-20T12:41:40.132Z,60.08
2023-03-20T12:44:37.838Z,59.42
2023-03-20T12:47:54.085Z,60.72
2023-03-20T12:50:43.258Z,59.97
2023-03-20T12:53:42.407Z,58.06
2023-03-20T12:56:51.497Z,57.72
2023-03-20T12:59:50.189Z,56.93
2023-03-20T13:02:47.342Z,57.88
2023-03-20T13:05:42.916Z,58.40
2023-03-20T13:08:44.392Z,57.48
2023-03-20T13:11:37.468Z,57.47
2023-03-20T13:14:30.610Z,57.41
2023-03-20T13:17:23.872Z,59.17
2023-03-20T13:20:27.056Z,57.93
2023-03-20T13:23:22.478Z,55.94
2023-03-20T13:26:22.330Z,57.18
2023-03-20T13:29:15.586Z,56.86
2023-03-20T13:32:17.084Z,55.83
2023-03-20T13:35:31.927Z,56.27
2023-03-20T13:38:22.791Z,55.70
2023-03-20T13:41:14.346Z,55.91
2023-03-20T13:44:04.516Z,55.24
2023-03-20T13:46:56.209Z,56.21
2023-03-20T13:49:52.056Z,56.80
2023-03-20T13:52:44.217Z,56.19
2023-03-20T13:55:38.907Z,54.94
2023-03-20T13:58:38.464Z,53.73
2023-03-20T14:01:33.850Z,55.00
2023-03-20T14:04:24.621Z,53.57
2023-03-20T14:10:39.211Z,53.79
2023-03-20T14:13:28.185Z,54.98
2023-03-20T14:16:18.387Z,54.35
2023-03-20T14:19:10.531Z,54.93
2023-03-20T14:22:00.550Z,54.07
2023-03-20T14:24:58.229Z,54.51
2023-03-20T14:27:59.805Z,54.87
2023-03-20T14:30:50.744Z,54.19
2023-03-20T14:33:44.287Z,55.29
2023-03-20T14:36:45.918Z,54.62
2023-03-20T14:39:46.874Z,56.42
2023-03-20T14:42:44.554Z,55.51
2023-03-20T14:45:39.274Z,55.91
2023-03-20T14:48:31.993Z,55.96
2023-03-20T14:51:29.742Z,56.04
2023-03-20T14:54:25.900Z,56.00
2023-03-20T14:57:20.030Z,55.22
2023-03-20T15:00:19.488Z,57.39
2023-03-20T15:03:11.287Z,57.02
2023-03-20T15:06:02.186Z,57.02
2023-03-20T15:08:53.197Z,56.02
2023-03-20T15:11:42.843Z,56.55
2023-03-20T15:14:35.443Z,56.75
2023-03-20T15:17:26.535Z,56.62
2023-03-20T15:20:19.197Z,57.40
2023-03-20T15:23:08.524Z,55.90
2023-03-20T15:25:57.053Z,56.41
2023-03-20T15:28:46.526Z,56.46
2023-03-20T15:31:36.508Z,57.17
2023-03-20T15:34:27.439Z,56.53
2023-03-20T15:37:18.900Z,56.90
2023-03-20T15:40:13.733Z,56.98
2023-03-20T15:43:07.230Z,56.29
2023-03-20T15:46:14.201Z,56.33
2023-03-20T15:49:06.237Z,56.35
2023-03-20T15:51:57.256Z,54.73
2023-03-20T15:54:47.712Z,55.14
2023-03-20T15:57:38.877Z,56.22
2023-03-20T16:00:31.011Z,55.46
2023-03-20T16:03:21.874Z,57.04
2023-03-20T16:06:12.279Z,56.99
2023-03-20T16:09:02.481Z,57.27
2023-03-20T16:11:57.777Z,57.53
2023-03-20T16:14:48.326Z,58.48
2023-03-20T16:17:36.925Z,57.43
2023-03-20T16:20:27.304Z,57.88
2023-03-20T16:23:24.613Z,57.28
2023-03-20T16:26:17.021Z,57.94
2023-03-20T16:29:07.641Z,57.40
2023-03-20T16:31:58.741Z,57.90
2023-03-20T16:34:52.086Z,58.36
2023-03-20T16:37:44.410Z,58.69
2023-03-20T16:40:34.729Z,58.92
2023-03-20T16:43:28.743Z,59.64
2023-03-20T16:46:22.580Z,60.27
2023-03-20T16:49:52.161Z,60.61
2023-03-20T16:52:41.977Z,60.35
2023-03-20T16:55:32.302Z,59.69
2023-03-20T16:58:23.460Z,60.40
2023-03-20T17:01:17.028Z,60.84
2023-03-20T17:04:15.917Z,60.15
2023-03-20T17:07:08.711Z,59.82
2023-03-20T17:10:00.630Z,59.01
2023-03-20T17:12:50.511Z,59.83
2023-03-20T17:15:38.994Z,60.05
2023-03-20T17:18:27.483Z,60.54
2023-03-20T17:21:17.335Z,60.88
2023-03-20T17:24:06.503Z,60.88
2023-03-20T17:26:56.285Z,61.54
2023-03-20T17:29:45.478Z,61.98
2023-03-20T17:32:34.235Z,61.60
2023-03-20T17:35:22.848Z,62.23
2023-03-20T17:38:18.865Z,61.56
2023-03-20T17:41:09.666Z,61.56
2023-03-20T17:43:58.192Z,62.07
2023-03-20T17:46:57.905Z,62.35
2023-03-20T17:49:51.835Z,62.65
2023-03-20T17:52:40.329Z,63.38
2023-03-20T17:55:30.256Z,63.37
2023-03-20T17:58:21.057Z,63.82
2023-03-20T18:01:10.986Z,64.40
2023-03-20T18:03:59.517Z,64.95
2023-03-20T18:06:49.145Z,65.30
2023-03-20T18:09:37.886Z,65.11
2023-03-20T18:12:27.840Z,64.50
2023-03-20T18:15:16.593Z,64.57
2023-03-20T18:18:05.761Z,65.31
2023-03-20T18:20:55.108Z,65.79
2023-03-20T18:23:43.821Z,65.91
2023-03-20T18:26:32.246Z,66.11
2023-03-20T18:29:22.498Z,66.22
2023-03-20T18:32:10.988Z,66.14
2023-03-20T18:34:59.632Z,66.67
2023-03-20T18:37:48.284Z,67.27
2023-03-20T18:40:38.549Z,67.23
2023-03-20T18:43:27.164Z,68.19
2023-03-20T18:46:18.500Z,68.86
2023-03-20T18:49:07.977Z,69.46
2023-03-20T18:51:56.514Z,69.89
2023-03-20T18:54:44.990Z,69.58
2023-03-20T18:57:34.026Z,69.21
2023-03-20T19:00:25.416Z,68.79
2023-03-20T19:03:15.573Z,69.61
2023-03-20T19:06:04.125Z,70.47
2023-03-20T19:08:53.144Z,71.06
2023-03-20T19:11:41.649Z,72.00
2023-03-20T19:14:30.255Z,72.95
2023-03-20T19:17:18.739Z,73.97
2023-03-20T19:20:18.144Z,73.99
2023-03-20T19:23:07.965Z,74.25
2023-03-20T19:25:56.645Z,74.42
2023-03-20T19:28:45.903Z,75.28
2023-03-20T19:31:34.447Z,76.09
2023-03-20T19:35:00.777Z,76.87
2023-03-20T19:37:32.742Z,77.05
2023-03-20T19:40:25.858Z,77.19
2023-03-20T19:43:15.554Z,77.56
2023-03-20T19:46:04.185Z,77.79
2023-03-20T19:48:53.663Z,78.03
2023-03-20T19:51:46.022Z,77.39
2023-03-20T19:54:35.944Z,77.82
2023-03-20T19:57:26.896Z,78.82
2023-03-20T20:03:26.907Z,79.06
2023-03-20T20:06:16.087Z,78.34
2023-03-20T20:09:05.214Z,78.05
2023-03-20T20:11:55.136Z,77.97
2023-03-20T20:14:44.187Z,78.85
2023-03-20T20:17:32.654Z,78.77
2023-03-20T20:20:25.046Z,78.83
2023-03-20T20:23:15.700Z,78.72
2023-03-20T20:26:04.860Z,78.54
2023-03-20T20:28:54.678Z,78.94
2023-03-20T20:31:43.317Z,79.55
2023-03-20T20:38:27.061Z,81.00
2023-03-20T20:40:50.806Z,81.59
2023-03-20T20:44:14.057Z,81.65
2023-03-20T20:46:51.919Z,81.39
2023-03-20T20:49:40.661Z,81.63
2023-03-20T20:52:29.197Z,81.78
2023-03-20T20:55:23.118Z,81.90
2023-03-20T20:58:12.141Z,82.51
2023-03-20T21:01:01.799Z,82.62
2023-03-20T21:03:52.316Z,82.31
2023-03-20T21:07:08.203Z,82.15
2023-03-20T21:09:50.034Z,81.59
2023-03-20T21:12:55.876Z,81.82
2023-03-20T21:15:47.434Z,81.76
2023-03-20T21:18:36.396Z,81.68
2023-03-20T21:21:26.255Z,81.93
2023-03-20T21:24:31.682Z,82.87
2023-03-20T21:27:21.956Z,83.54
2023-03-20T21:30:11.715Z,84.73
2023-03-20T21:33:00.353Z,85.42
2023-03-20T21:35:50.718Z,86.50
2023-03-20T21:39:06.832Z,88.35
2023-03-20T21:41:49.194Z,89.64
2023-03-20T21:51:42.216Z,89.29
2023-03-20T21:55:00.615Z,89.50
2023-03-20T22:04:06.255Z,88.20
2023-03-20T22:10:37.594Z,87.73
2023-03-20T22:23:12.869Z,87.21
2023-03-20T22:26:25.265Z,87.76
2023-03-20T22:38:55.523Z,89.18
2023-03-20T22:47:38.058Z,90.19
2023-03-20T22:50:26.535Z,89.98
2023-03-20T22:53:15.400Z,90.36
2023-03-20T22:56:04.213Z,90.45
2023-03-20T22:58:53.997Z,90.97
2023-03-20T23:01:42.508Z,91.14
2023-03-20T23:04:31.311Z,91.00
2023-03-20T23:07:19.919Z,91.15
2023-03-20T23:10:09.917Z,91.26
2023-03-20T23:12:58.463Z,91.35
2023-03-20T23:15:50.523Z,92.06
2023-03-20T23:18:39.226Z,91.88
2023-03-20T23:21:28.234Z,92.14
2023-03-20T23:24:16.896Z,92.22
2023-03-20T23:27:05.640Z,92.92
2023-03-20T23:29:54.100Z,93.25
2023-03-20T23:32:44.087Z,93.33
2023-03-20T23:35:32.564Z,94.14
2023-03-20T23:38:21.118Z,93.85
2023-03-20T23:41:10.753Z,94.51
2023-03-20T23:43:59.298Z,94.52
2023-03-20T23:46:48.417Z,94.69
2023-03-20T23:49:39.750Z,95.13
2023-03-20T23:52:28.166Z,95.00
2023-03-20T23:55:21.450Z,96.11
2023-03-20T23:58:09.995Z,96.53
